sensor_id;sensor_type;location;lat;lon;timestamp;temperature;humidity
13976;DHT22;7062;49.792;9.946;2024-02-14T00:01:55;8.20;99.90
13976;DHT22;7062;49.792;9.946;2024-02-14T00:04:21;8.20;99.90
13976;DHT22;7062;49.792;9.946;2024-02-14T00:06:47;8.10;99.90
13976;DHT22;7062;49.792;9.946;2024-02-14T00:09:12;8.00;99.90
13976;DHT22;7062;49.792;9.946;2024-02-14T00:11:38;8.10;99.90
13976;DHT22;7062;49.792;9.946;2024-02-14T00:14:04;8.00;99.90
13976;DHT22;7062;49.792;9.946;2024-02-14T00:16:29;8.00;99.90
13976;DHT22;7062;49.792;9.946;2024-02-14T00:18:58;8.00;99.90
13976;DHT22;7062;49.792;9.946;2024-02-14T00:21:24;8.10;99.90
13976;DHT22;7062;49.792;9.946;2024-02-14T00:23:50;8.10;99.90
13976;DHT22;7062;49.792;9.946;2024-02-14T00:26:16;8.20;99.90
13976;DHT22;7062;49.792;9.946;2024-02-14T00:28:42;8.20;99.90
13976;DHT22;7062;49.792;9.946;2024-02-14T00:31:07;8.10;99.90
13976;DHT22;7062;49.792;9.946;2024-02-14T00:33:33;8.10;99.90
13976;DHT22;7062;49.792;9.946;2024-02-14T00:35:58;8.20;99.90
13976;DHT22;7062;49.792;9.946;2024-02-14T00:38:24;8.20;99.90
13976;DHT22;7062;49.792;9.946;2024-02-14T00:40:50;8.20;99.90
13976;DHT22;7062;49.792;9.946;2024-02-14T00:43:15;8.10;99.90
13976;DHT22;7062;49.792;9.946;2024-02-14T00:45:41;8.10;99.90
13976;DHT22;7062;49.792;9.946;2024-02-14T00:48:07;8.10;99.90
13976;DHT22;7062;49.792;9.946;2024-02-14T00:50:33;8.10;99.90
13976;DHT22;7062;49.792;9.946;2024-02-14T00:52:59;7.90;99.90
13976;DHT22;7062;49.792;9.946;2024-02-14T00:55:25;7.90;99.90
13976;DHT22;7062;49.792;9.946;2024-02-14T00:57:50;7.90;99.90
13976;DHT22;7062;49.792;9.946;2024-02-14T01:00:16;7.90;99.90
13976;DHT22;7062;49.792;9.946;2024-02-14T01:02:43;8.00;99.90
13976;DHT22;7062;49.792;9.946;2024-02-14T01:05:09;8.00;99.90
13976;DHT22;7062;49.792;9.946;2024-02-14T01:07:35;8.00;99.90
13976;DHT22;7062;49.792;9.946;2024-02-14T01:10:01;7.90;99.90
13976;DHT22;7062;49.792;9.946;2024-02-14T01:12:26;7.60;99.90
13976;DHT22;7062;49.792;9.946;2024-02-14T01:14:53;7.40;99.90
13976;DHT22;7062;49.792;9.946;2024-02-14T01:17:19;7.30;99.90
13976;DHT22;7062;49.792;9.946;2024-02-14T01:19:44;7.30;99.90
13976;DHT22;7062;49.792;9.946;2024-02-14T01:22:10;7.30;99.90
13976;DHT22;7062;49.792;9.946;2024-02-14T01:24:35;7.30;99.90
13976;DHT22;7062;49.792;9.946;2024-02-14T01:27:01;7.30;99.90
13976;DHT22;7062;49.792;9.946;2024-02-14T01:29:28;7.30;99.90
13976;DHT22;7062;49.792;9.946;2024-02-14T01:31:54;7.20;99.90
13976;DHT22;7062;49.792;9.946;2024-02-14T01:34:20;7.10;99.90
13976;DHT22;7062;49.792;9.946;2024-02-14T01:36:47;7.20;99.90
13976;DHT22;7062;49.792;9.946;2024-02-14T01:39:13;7.30;99.90
13976;DHT22;7062;49.792;9.946;2024-02-14T01:41:43;7.20;99.90
13976;DHT22;7062;49.792;9.946;2024-02-14T01:44:10;7.20;99.90
13976;DHT22;7062;49.792;9.946;2024-02-14T01:46:36;7.30;99.90
13976;DHT22;7062;49.792;9.946;2024-02-14T01:49:01;7.50;99.90
13976;DHT22;7062;49.792;9.946;2024-02-14T01:51:28;7.60;99.90
13976;DHT22;7062;49.792;9.946;2024-02-14T01:53:55;7.50;99.90
13976;DHT22;7062;49.792;9.946;2024-02-14T01:56:21;7.40;99.90
13976;DHT22;7062;49.792;9.946;2024-02-14T01:58:47;7.50;99.90
13976;DHT22;7062;49.792;9.946;2024-02-14T02:01:13;7.40;99.90
13976;DHT22;7062;49.792;9.946;2024-02-14T02:03:40;7.40;99.90
13976;DHT22;7062;49.792;9.946;2024-02-14T02:06:06;7.30;99.90
13976;DHT22;7062;49.792;9.946;2024-02-14T02:08:32;7.20;99.90
13976;DHT22;7062;49.792;9.946;2024-02-14T02:10:58;7.50;99.90
13976;DHT22;7062;49.792;9.946;2024-02-14T02:13:24;7.40;99.90
13976;DHT22;7062;49.792;9.946;2024-02-14T02:15:52;7.40;99.90
13976;DHT22;7062;49.792;9.946;2024-02-14T02:18:18;7.50;99.90
13976;DHT22;7062;49.792;9.946;2024-02-14T02:20:45;7.50;99.90
13976;DHT22;7062;49.792;9.946;2024-02-14T02:23:14;7.50;99.90
13976;DHT22;7062;49.792;9.946;2024-02-14T02:25:41;7.70;99.90
13976;DHT22;7062;49.792;9.946;2024-02-14T02:28:06;7.60;99.90
13976;DHT22;7062;49.792;9.946;2024-02-14T02:30:34;7.80;99.90
13976;DHT22;7062;49.792;9.946;2024-02-14T02:33:01;7.80;99.90
13976;DHT22;7062;49.792;9.946;2024-02-14T02:35:28;7.80;99.90
13976;DHT22;7062;49.792;9.946;2024-02-14T02:37:53;8.00;99.90
13976;DHT22;7062;49.792;9.946;2024-02-14T02:40:19;8.10;99.90
13976;DHT22;7062;49.792;9.946;2024-02-14T02:42:47;8.20;99.90
13976;DHT22;7062;49.792;9.946;2024-02-14T02:45:12;8.10;99.90
13976;DHT22;7062;49.792;9.946;2024-02-14T02:47:38;8.20;99.90
13976;DHT22;7062;49.792;9.946;2024-02-14T02:50:05;8.10;99.90
13976;DHT22;7062;49.792;9.946;2024-02-14T02:52:31;8.10;99.90
13976;DHT22;7062;49.792;9.946;2024-02-14T02:54:57;8.10;99.90
13976;DHT22;7062;49.792;9.946;2024-02-14T02:57:23;8.10;99.90
13976;DHT22;7062;49.792;9.946;2024-02-14T02:59:48;8.00;99.90
13976;DHT22;7062;49.792;9.946;2024-02-14T03:02:15;8.10;99.90
13976;DHT22;7062;49.792;9.946;2024-02-14T03:04:40;8.20;99.90
13976;DHT22;7062;49.792;9.946;2024-02-14T03:07:08;8.20;99.90
13976;DHT22;7062;49.792;9.946;2024-02-14T03:09:34;8.30;99.90
13976;DHT22;7062;49.792;9.946;2024-02-14T03:12:02;8.30;99.90
13976;DHT22;7062;49.792;9.946;2024-02-14T03:14:32;8.10;99.90
13976;DHT22;7062;49.792;9.946;2024-02-14T03:17:01;8.00;99.90
13976;DHT22;7062;49.792;9.946;2024-02-14T03:19:27;7.90;99.90
13976;DHT22;7062;49.792;9.946;2024-02-14T03:21:54;7.90;99.90
13976;DHT22;7062;49.792;9.946;2024-02-14T03:24:20;7.80;99.90
13976;DHT22;7062;49.792;9.946;2024-02-14T03:26:46;7.80;99.90
13976;DHT22;7062;49.792;9.946;2024-02-14T03:29:12;7.80;99.90
13976;DHT22;7062;49.792;9.946;2024-02-14T03:31:38;7.80;99.90
13976;DHT22;7062;49.792;9.946;2024-02-14T03:34:03;7.90;99.90
13976;DHT22;7062;49.792;9.946;2024-02-14T03:36:29;7.90;99.90
13976;DHT22;7062;49.792;9.946;2024-02-14T03:38:56;7.90;99.90
13976;DHT22;7062;49.792;9.946;2024-02-14T03:41:22;7.80;99.90
13976;DHT22;7062;49.792;9.946;2024-02-14T03:43:48;7.80;99.90
13976;DHT22;7062;49.792;9.946;2024-02-14T03:46:16;7.90;99.90
13976;DHT22;7062;49.792;9.946;2024-02-14T03:48:45;8.00;99.90
13976;DHT22;7062;49.792;9.946;2024-02-14T03:51:13;8.00;99.90
13976;DHT22;7062;49.792;9.946;2024-02-14T03:53:39;8.00;99.90
13976;DHT22;7062;49.792;9.946;2024-02-14T03:56:05;8.30;99.90
13976;DHT22;7062;49.792;9.946;2024-02-14T03:58:32;7.80;99.90
13976;DHT22;7062;49.792;9.946;2024-02-14T04:01:02;7.80;99.90
13976;DHT22;7062;49.792;9.946;2024-02-14T04:03:28;7.60;99.90
13976;DHT22;7062;49.792;9.946;2024-02-14T04:05:54;7.50;99.90
13976;DHT22;7062;49.792;9.946;2024-02-14T04:08:20;7.40;99.90
13976;DHT22;7062;49.792;9.946;2024-02-14T04:10:45;7.50;99.90
13976;DHT22;7062;49.792;9.946;2024-02-14T04:13:11;7.60;99.90
13976;DHT22;7062;49.792;9.946;2024-02-14T04:15:37;7.40;99.90
13976;DHT22;7062;49.792;9.946;2024-02-14T04:18:03;7.50;99.90
13976;DHT22;7062;49.792;9.946;2024-02-14T04:20:31;8.30;99.90
13976;DHT22;7062;49.792;9.946;2024-02-14T04:22:57;7.60;99.90
13976;DHT22;7062;49.792;9.946;2024-02-14T04:25:24;7.70;99.90
13976;DHT22;7062;49.792;9.946;2024-02-14T04:27:49;7.80;99.90
13976;DHT22;7062;49.792;9.946;2024-02-14T04:30:15;7.80;99.90
13976;DHT22;7062;49.792;9.946;2024-02-14T04:32:41;8.00;99.90
13976;DHT22;7062;49.792;9.946;2024-02-14T04:35:09;8.00;99.90
13976;DHT22;7062;49.792;9.946;2024-02-14T04:37:34;8.00;99.90
13976;DHT22;7062;49.792;9.946;2024-02-14T04:40:01;8.10;99.90
13976;DHT22;7062;49.792;9.946;2024-02-14T04:42:26;8.10;99.90
13976;DHT22;7062;49.792;9.946;2024-02-14T04:44:52;8.20;99.90
13976;DHT22;7062;49.792;9.946;2024-02-14T04:47:17;8.20;99.90
13976;DHT22;7062;49.792;9.946;2024-02-14T04:49:43;8.20;99.90
13976;DHT22;7062;49.792;9.946;2024-02-14T04:52:09;8.20;99.90
13976;DHT22;7062;49.792;9.946;2024-02-14T04:54:34;8.20;99.90
13976;DHT22;7062;49.792;9.946;2024-02-14T04:57:00;8.20;99.90
13976;DHT22;7062;49.792;9.946;2024-02-14T04:59:25;8.20;99.90
13976;DHT22;7062;49.792;9.946;2024-02-14T05:01:51;8.20;99.90
13976;DHT22;7062;49.792;9.946;2024-02-14T05:04:19;8.30;99.90
13976;DHT22;7062;49.792;9.946;2024-02-14T05:06:44;8.20;99.90
13976;DHT22;7062;49.792;9.946;2024-02-14T05:09:10;8.20;99.90
13976;DHT22;7062;49.792;9.946;2024-02-14T05:11:36;8.20;99.90
13976;DHT22;7062;49.792;9.946;2024-02-14T05:14:02;8.20;99.90
13976;DHT22;7062;49.792;9.946;2024-02-14T05:16:29;8.20;99.90
13976;DHT22;7062;49.792;9.946;2024-02-14T05:18:55;8.30;99.90
13976;DHT22;7062;49.792;9.946;2024-02-14T05:21:21;8.20;99.90
13976;DHT22;7062;49.792;9.946;2024-02-14T05:23:47;8.20;99.90
13976;DHT22;7062;49.792;9.946;2024-02-14T05:26:12;8.30;99.90
13976;DHT22;7062;49.792;9.946;2024-02-14T05:28:38;8.20;99.90
13976;DHT22;7062;49.792;9.946;2024-02-14T05:31:05;8.10;99.90
13976;DHT22;7062;49.792;9.946;2024-02-14T05:33:31;8.20;99.90
13976;DHT22;7062;49.792;9.946;2024-02-14T05:35:56;8.20;99.90
13976;DHT22;7062;49.792;9.946;2024-02-14T05:38:22;8.30;99.90
13976;DHT22;7062;49.792;9.946;2024-02-14T05:40:49;8.40;99.90
13976;DHT22;7062;49.792;9.946;2024-02-14T05:43:15;8.50;99.90
13976;DHT22;7062;49.792;9.946;2024-02-14T05:45:41;8.60;99.90
13976;DHT22;7062;49.792;9.946;2024-02-14T05:48:07;8.50;99.90
13976;DHT22;7062;49.792;9.946;2024-02-14T05:50:33;8.30;99.90
13976;DHT22;7062;49.792;9.946;2024-02-14T05:52:59;8.20;99.90
13976;DHT22;7062;49.792;9.946;2024-02-14T05:55:25;8.20;99.90
13976;DHT22;7062;49.792;9.946;2024-02-14T05:57:51;8.10;99.90
13976;DHT22;7062;49.792;9.946;2024-02-14T06:00:20;8.10;99.90
13976;DHT22;7062;49.792;9.946;2024-02-14T06:02:48;8.20;99.90
13976;DHT22;7062;49.792;9.946;2024-02-14T06:05:15;8.30;99.90
13976;DHT22;7062;49.792;9.946;2024-02-14T06:07:41;8.40;99.90
13976;DHT22;7062;49.792;9.946;2024-02-14T06:10:08;8.40;99.90
13976;DHT22;7062;49.792;9.946;2024-02-14T06:12:34;8.40;99.90
13976;DHT22;7062;49.792;9.946;2024-02-14T06:15:00;8.50;99.90
13976;DHT22;7062;49.792;9.946;2024-02-14T06:17:26;8.60;99.90
13976;DHT22;7062;49.792;9.946;2024-02-14T06:19:53;8.60;99.90
13976;DHT22;7062;49.792;9.946;2024-02-14T06:22:18;8.70;99.90
13976;DHT22;7062;49.792;9.946;2024-02-14T06:24:44;8.80;99.90
13976;DHT22;7062;49.792;9.946;2024-02-14T06:27:10;8.80;99.90
13976;DHT22;7062;49.792;9.946;2024-02-14T06:29:35;8.80;99.90
13976;DHT22;7062;49.792;9.946;2024-02-14T06:32:01;8.80;99.90
13976;DHT22;7062;49.792;9.946;2024-02-14T06:34:27;8.90;99.90
13976;DHT22;7062;49.792;9.946;2024-02-14T06:36:54;8.90;99.90
13976;DHT22;7062;49.792;9.946;2024-02-14T06:39:20;9.00;99.90
13976;DHT22;7062;49.792;9.946;2024-02-14T06:41:48;9.10;99.90
13976;DHT22;7062;49.792;9.946;2024-02-14T06:44:14;9.20;99.90
13976;DHT22;7062;49.792;9.946;2024-02-14T06:46:39;9.10;99.90
13976;DHT22;7062;49.792;9.946;2024-02-14T06:49:07;9.10;99.90
13976;DHT22;7062;49.792;9.946;2024-02-14T06:51:33;9.10;99.90
13976;DHT22;7062;49.792;9.946;2024-02-14T06:53:58;9.10;99.90
13976;DHT22;7062;49.792;9.946;2024-02-14T06:56:24;9.00;99.90
13976;DHT22;7062;49.792;9.946;2024-02-14T06:58:50;8.90;99.90
13976;DHT22;7062;49.792;9.946;2024-02-14T07:01:19;8.90;99.90
13976;DHT22;7062;49.792;9.946;2024-02-14T07:03:48;8.90;99.90
13976;DHT22;7062;49.792;9.946;2024-02-14T07:06:15;9.10;99.90
13976;DHT22;7062;49.792;9.946;2024-02-14T07:08:41;9.20;99.90
13976;DHT22;7062;49.792;9.946;2024-02-14T07:11:07;9.20;99.90
13976;DHT22;7062;49.792;9.946;2024-02-14T07:13:32;9.30;99.90
13976;DHT22;7062;49.792;9.946;2024-02-14T07:15:58;9.30;99.90
13976;DHT22;7062;49.792;9.946;2024-02-14T07:18:23;9.40;99.90
13976;DHT22;7062;49.792;9.946;2024-02-14T07:20:49;9.40;99.90
13976;DHT22;7062;49.792;9.946;2024-02-14T07:23:15;9.40;99.90
13976;DHT22;7062;49.792;9.946;2024-02-14T07:25:40;9.50;99.90
13976;DHT22;7062;49.792;9.946;2024-02-14T07:28:06;9.50;99.90
13976;DHT22;7062;49.792;9.946;2024-02-14T07:30:32;9.60;99.90
13976;DHT22;7062;49.792;9.946;2024-02-14T07:32:57;9.50;99.90
13976;DHT22;7062;49.792;9.946;2024-02-14T07:35:23;9.20;99.90
13976;DHT22;7062;49.792;9.946;2024-02-14T07:37:49;9.10;99.90
13976;DHT22;7062;49.792;9.946;2024-02-14T07:40:14;9.10;99.90
13976;DHT22;7062;49.792;9.946;2024-02-14T07:42:40;9.20;99.90
13976;DHT22;7062;49.792;9.946;2024-02-14T07:45:06;9.20;99.90
13976;DHT22;7062;49.792;9.946;2024-02-14T07:47:31;9.20;99.90
13976;DHT22;7062;49.792;9.946;2024-02-14T07:49:57;9.20;99.90
13976;DHT22;7062;49.792;9.946;2024-02-14T07:52:23;9.20;99.90
13976;DHT22;7062;49.792;9.946;2024-02-14T07:54:53;9.20;99.90
13976;DHT22;7062;49.792;9.946;2024-02-14T07:57:20;9.20;99.90
13976;DHT22;7062;49.792;9.946;2024-02-14T07:59:45;9.30;99.90
13976;DHT22;7062;49.792;9.946;2024-02-14T08:02:11;9.20;99.90
13976;DHT22;7062;49.792;9.946;2024-02-14T08:04:36;9.30;99.90
13976;DHT22;7062;49.792;9.946;2024-02-14T08:07:02;9.30;99.90
13976;DHT22;7062;49.792;9.946;2024-02-14T08:09:29;9.30;99.90
13976;DHT22;7062;49.792;9.946;2024-02-14T08:11:55;9.30;99.90
13976;DHT22;7062;49.792;9.946;2024-02-14T08:14:20;9.30;99.90
13976;DHT22;7062;49.792;9.946;2024-02-14T08:16:46;9.20;99.90
13976;DHT22;7062;49.792;9.946;2024-02-14T08:19:12;9.30;99.90
13976;DHT22;7062;49.792;9.946;2024-02-14T08:21:37;9.40;99.90
13976;DHT22;7062;49.792;9.946;2024-02-14T08:24:03;9.40;99.90
13976;DHT22;7062;49.792;9.946;2024-02-14T08:26:28;9.40;99.90
13976;DHT22;7062;49.792;9.946;2024-02-14T08:28:54;9.50;99.90
13976;DHT22;7062;49.792;9.946;2024-02-14T08:31:20;9.60;99.90
13976;DHT22;7062;49.792;9.946;2024-02-14T08:33:46;9.50;99.90
13976;DHT22;7062;49.792;9.946;2024-02-14T08:36:11;9.40;99.90
13976;DHT22;7062;49.792;9.946;2024-02-14T08:38:38;9.50;99.90
13976;DHT22;7062;49.792;9.946;2024-02-14T08:41:03;9.60;99.90
13976;DHT22;7062;49.792;9.946;2024-02-14T08:43:30;9.60;99.90
13976;DHT22;7062;49.792;9.946;2024-02-14T08:45:56;9.70;99.90
13976;DHT22;7062;49.792;9.946;2024-02-14T08:48:22;9.80;99.90
13976;DHT22;7062;49.792;9.946;2024-02-14T08:50:48;9.80;99.90
13976;DHT22;7062;49.792;9.946;2024-02-14T08:53:14;9.90;99.90
13976;DHT22;7062;49.792;9.946;2024-02-14T08:55:40;9.80;99.90
13976;DHT22;7062;49.792;9.946;2024-02-14T08:58:06;10.00;99.90
13976;DHT22;7062;49.792;9.946;2024-02-14T09:00:32;10.00;99.90
13976;DHT22;7062;49.792;9.946;2024-02-14T09:03:00;10.00;99.90
13976;DHT22;7062;49.792;9.946;2024-02-14T09:05:26;10.00;99.90
13976;DHT22;7062;49.792;9.946;2024-02-14T09:07:53;9.90;99.90
13976;DHT22;7062;49.792;9.946;2024-02-14T09:10:19;10.10;99.90
13976;DHT22;7062;49.792;9.946;2024-02-14T09:12:45;10.20;99.90
13976;DHT22;7062;49.792;9.946;2024-02-14T09:15:11;10.20;99.90
13976;DHT22;7062;49.792;9.946;2024-02-14T09:17:37;10.20;99.90
13976;DHT22;7062;49.792;9.946;2024-02-14T09:20:05;10.30;99.90
13976;DHT22;7062;49.792;9.946;2024-02-14T09:22:35;10.30;99.90
13976;DHT22;7062;49.792;9.946;2024-02-14T09:25:01;10.20;99.90
13976;DHT22;7062;49.792;9.946;2024-02-14T09:27:30;10.10;99.90
13976;DHT22;7062;49.792;9.946;2024-02-14T09:29:55;10.00;99.90
13976;DHT22;7062;49.792;9.946;2024-02-14T09:32:21;10.00;99.90
13976;DHT22;7062;49.792;9.946;2024-02-14T09:34:47;9.90;99.90
13976;DHT22;7062;49.792;9.946;2024-02-14T09:37:12;10.00;99.90
13976;DHT22;7062;49.792;9.946;2024-02-14T09:39:38;10.10;99.90
13976;DHT22;7062;49.792;9.946;2024-02-14T09:42:09;10.20;99.90
13976;DHT22;7062;49.792;9.946;2024-02-14T09:44:36;10.20;99.90
13976;DHT22;7062;49.792;9.946;2024-02-14T09:47:04;10.30;99.90
13976;DHT22;7062;49.792;9.946;2024-02-14T09:49:31;10.30;99.90
13976;DHT22;7062;49.792;9.946;2024-02-14T09:51:58;10.20;99.90
13976;DHT22;7062;49.792;9.946;2024-02-14T09:54:24;10.20;99.90
13976;DHT22;7062;49.792;9.946;2024-02-14T09:56:51;10.10;99.90
13976;DHT22;7062;49.792;9.946;2024-02-14T09:59:22;10.10;99.90
13976;DHT22;7062;49.792;9.946;2024-02-14T10:01:48;10.10;99.90
13976;DHT22;7062;49.792;9.946;2024-02-14T10:04:16;10.20;99.90
13976;DHT22;7062;49.792;9.946;2024-02-14T10:06:43;10.10;99.90
13976;DHT22;7062;49.792;9.946;2024-02-14T10:09:09;10.30;99.90
13976;DHT22;7062;49.792;9.946;2024-02-14T10:11:35;10.30;99.90
13976;DHT22;7062;49.792;9.946;2024-02-14T10:14:02;10.30;99.90
13976;DHT22;7062;49.792;9.946;2024-02-14T10:16:29;10.30;99.90
13976;DHT22;7062;49.792;9.946;2024-02-14T10:18:55;10.20;99.90
13976;DHT22;7062;49.792;9.946;2024-02-14T10:21:22;10.30;99.90
13976;DHT22;7062;49.792;9.946;2024-02-14T10:23:50;10.30;99.90
13976;DHT22;7062;49.792;9.946;2024-02-14T10:26:18;10.40;99.90
13976;DHT22;7062;49.792;9.946;2024-02-14T10:28:45;10.70;99.90
13976;DHT22;7062;49.792;9.946;2024-02-14T10:31:18;10.90;99.90
13976;DHT22;7062;49.792;9.946;2024-02-14T10:33:45;11.00;99.90
13976;DHT22;7062;49.792;9.946;2024-02-14T10:36:12;10.90;99.90
13976;DHT22;7062;49.792;9.946;2024-02-14T10:38:39;10.90;99.90
13976;DHT22;7062;49.792;9.946;2024-02-14T10:41:05;10.90;99.90
13976;DHT22;7062;49.792;9.946;2024-02-14T10:43:31;10.80;99.90
13976;DHT22;7062;49.792;9.946;2024-02-14T10:46:00;10.80;99.90
13976;DHT22;7062;49.792;9.946;2024-02-14T10:48:28;10.70;99.90
13976;DHT22;7062;49.792;9.946;2024-02-14T10:50:59;10.70;99.90
13976;DHT22;7062;49.792;9.946;2024-02-14T10:53:29;10.80;99.90
13976;DHT22;7062;49.792;9.946;2024-02-14T10:55:59;10.80;99.90
13976;DHT22;7062;49.792;9.946;2024-02-14T10:58:28;10.80;99.90
13976;DHT22;7062;49.792;9.946;2024-02-14T11:00:55;10.90;99.90
13976;DHT22;7062;49.792;9.946;2024-02-14T11:03:22;10.90;99.90
13976;DHT22;7062;49.792;9.946;2024-02-14T11:05:49;10.90;99.90
13976;DHT22;7062;49.792;9.946;2024-02-14T11:08:19;11.10;99.90
13976;DHT22;7062;49.792;9.946;2024-02-14T11:10:53;11.20;99.90
13976;DHT22;7062;49.792;9.946;2024-02-14T11:13:20;11.10;99.90
13976;DHT22;7062;49.792;9.946;2024-02-14T11:15:47;11.20;99.90
13976;DHT22;7062;49.792;9.946;2024-02-14T11:18:28;11.40;99.90
13976;DHT22;7062;49.792;9.946;2024-02-14T11:20:57;11.80;99.90
13976;DHT22;7062;49.792;9.946;2024-02-14T11:23:25;11.70;99.90
13976;DHT22;7062;49.792;9.946;2024-02-14T11:26:03;11.70;99.90
13976;DHT22;7062;49.792;9.946;2024-02-14T11:28:30;11.60;99.90
13976;DHT22;7062;49.792;9.946;2024-02-14T11:31:00;11.50;99.90
13976;DHT22;7062;49.792;9.946;2024-02-14T11:33:28;11.40;99.90
13976;DHT22;7062;49.792;9.946;2024-02-14T11:35:55;11.20;99.90
13976;DHT22;7062;49.792;9.946;2024-02-14T11:38:22;11.30;99.90
13976;DHT22;7062;49.792;9.946;2024-02-14T11:40:49;11.30;99.90
13976;DHT22;7062;49.792;9.946;2024-02-14T11:43:17;11.20;99.90
13976;DHT22;7062;49.792;9.946;2024-02-14T11:45:44;11.30;99.90
13976;DHT22;7062;49.792;9.946;2024-02-14T11:48:14;12.10;99.90
13976;DHT22;7062;49.792;9.946;2024-02-14T11:50:41;11.30;99.90
13976;DHT22;7062;49.792;9.946;2024-02-14T11:53:12;11.20;99.90
13976;DHT22;7062;49.792;9.946;2024-02-14T11:55:39;11.10;99.90
13976;DHT22;7062;49.792;9.946;2024-02-14T11:58:09;11.10;99.90
13976;DHT22;7062;49.792;9.946;2024-02-14T12:00:37;11.10;99.90
13976;DHT22;7062;49.792;9.946;2024-02-14T12:03:06;11.10;99.90
13976;DHT22;7062;49.792;9.946;2024-02-14T12:05:32;11.10;99.90
13976;DHT22;7062;49.792;9.946;2024-02-14T12:07:59;11.10;99.90
13976;DHT22;7062;49.792;9.946;2024-02-14T12:10:25;11.10;99.90
13976;DHT22;7062;49.792;9.946;2024-02-14T12:12:51;11.10;99.90
13976;DHT22;7062;49.792;9.946;2024-02-14T12:15:17;11.10;99.90
13976;DHT22;7062;49.792;9.946;2024-02-14T12:17:42;11.20;99.90
13976;DHT22;7062;49.792;9.946;2024-02-14T12:20:10;11.10;99.90
13976;DHT22;7062;49.792;9.946;2024-02-14T12:22:37;11.10;99.90
13976;DHT22;7062;49.792;9.946;2024-02-14T12:25:03;11.00;99.90
13976;DHT22;7062;49.792;9.946;2024-02-14T12:27:33;10.90;99.90
13976;DHT22;7062;49.792;9.946;2024-02-14T12:30:03;10.90;99.90
13976;DHT22;7062;49.792;9.946;2024-02-14T12:32:29;10.90;99.90
13976;DHT22;7062;49.792;9.946;2024-02-14T12:34:59;11.00;99.90
13976;DHT22;7062;49.792;9.946;2024-02-14T12:37:25;11.10;99.90
13976;DHT22;7062;49.792;9.946;2024-02-14T12:39:51;11.30;99.90
13976;DHT22;7062;49.792;9.946;2024-02-14T12:42:18;11.30;99.90
13976;DHT22;7062;49.792;9.946;2024-02-14T12:44:50;11.50;99.90
13976;DHT22;7062;49.792;9.946;2024-02-14T12:47:16;11.50;99.90
13976;DHT22;7062;49.792;9.946;2024-02-14T12:49:43;11.60;99.90
13976;DHT22;7062;49.792;9.946;2024-02-14T12:52:09;11.60;99.90
13976;DHT22;7062;49.792;9.946;2024-02-14T12:54:34;11.50;99.90
13976;DHT22;7062;49.792;9.946;2024-02-14T12:57:00;11.40;99.90
13976;DHT22;7062;49.792;9.946;2024-02-14T12:59:26;11.40;99.90
13976;DHT22;7062;49.792;9.946;2024-02-14T13:01:52;11.40;99.90
13976;DHT22;7062;49.792;9.946;2024-02-14T13:04:17;11.50;99.90
13976;DHT22;7062;49.792;9.946;2024-02-14T13:06:43;11.50;99.90
13976;DHT22;7062;49.792;9.946;2024-02-14T13:09:09;11.40;99.90
13976;DHT22;7062;49.792;9.946;2024-02-14T13:11:35;11.50;99.90
13976;DHT22;7062;49.792;9.946;2024-02-14T13:14:02;11.60;99.90
13976;DHT22;7062;49.792;9.946;2024-02-14T13:16:29;11.60;99.90
13976;DHT22;7062;49.792;9.946;2024-02-14T13:18:55;11.60;99.90
13976;DHT22;7062;49.792;9.946;2024-02-14T13:21:21;11.50;99.90
13976;DHT22;7062;49.792;9.946;2024-02-14T13:23:47;11.30;99.90
13976;DHT22;7062;49.792;9.946;2024-02-14T13:26:13;11.20;99.90
13976;DHT22;7062;49.792;9.946;2024-02-14T13:28:39;11.30;99.90
13976;DHT22;7062;49.792;9.946;2024-02-14T13:31:06;11.30;99.90
13976;DHT22;7062;49.792;9.946;2024-02-14T13:33:31;12.30;99.90
13976;DHT22;7062;49.792;9.946;2024-02-14T13:35:57;11.60;99.90
13976;DHT22;7062;49.792;9.946;2024-02-14T13:38:23;11.70;99.90
13976;DHT22;7062;49.792;9.946;2024-02-14T13:40:49;11.80;99.90
13976;DHT22;7062;49.792;9.946;2024-02-14T13:43:15;11.90;99.90
13976;DHT22;7062;49.792;9.946;2024-02-14T13:45:43;12.00;99.90
13976;DHT22;7062;49.792;9.946;2024-02-14T13:48:09;12.00;99.90
13976;DHT22;7062;49.792;9.946;2024-02-14T13:50:36;12.00;99.90
13976;DHT22;7062;49.792;9.946;2024-02-14T13:53:02;11.90;99.90
13976;DHT22;7062;49.792;9.946;2024-02-14T13:55:28;11.90;99.90
13976;DHT22;7062;49.792;9.946;2024-02-14T13:57:54;11.80;99.90
13976;DHT22;7062;49.792;9.946;2024-02-14T14:00:20;11.70;99.90
13976;DHT22;7062;49.792;9.946;2024-02-14T14:02:45;11.80;99.90
13976;DHT22;7062;49.792;9.946;2024-02-14T14:05:11;11.60;99.90
13976;DHT22;7062;49.792;9.946;2024-02-14T14:07:38;11.50;99.90
13976;DHT22;7062;49.792;9.946;2024-02-14T14:10:08;11.50;99.90
13976;DHT22;7062;49.792;9.946;2024-02-14T14:12:34;11.50;99.90
13976;DHT22;7062;49.792;9.946;2024-02-14T14:15:00;11.40;99.90
13976;DHT22;7062;49.792;9.946;2024-02-14T14:17:27;11.50;99.90
13976;DHT22;7062;49.792;9.946;2024-02-14T14:19:53;11.50;99.90
13976;DHT22;7062;49.792;9.946;2024-02-14T14:22:19;11.60;99.90
13976;DHT22;7062;49.792;9.946;2024-02-14T14:24:45;11.60;99.90
13976;DHT22;7062;49.792;9.946;2024-02-14T14:27:10;11.60;99.90
13976;DHT22;7062;49.792;9.946;2024-02-14T14:29:40;11.70;99.90
13976;DHT22;7062;49.792;9.946;2024-02-14T14:32:09;11.50;99.90
13976;DHT22;7062;49.792;9.946;2024-02-14T14:34:35;11.50;99.90
13976;DHT22;7062;49.792;9.946;2024-02-14T14:37:01;11.40;99.90
13976;DHT22;7062;49.792;9.946;2024-02-14T14:39:27;11.30;99.90
13976;DHT22;7062;49.792;9.946;2024-02-14T14:41:53;11.40;99.90
13976;DHT22;7062;49.792;9.946;2024-02-14T14:44:26;11.50;99.90
13976;DHT22;7062;49.792;9.946;2024-02-14T14:46:55;11.40;99.90
13976;DHT22;7062;49.792;9.946;2024-02-14T14:49:21;11.40;99.90
13976;DHT22;7062;49.792;9.946;2024-02-14T14:51:47;11.40;99.90
13976;DHT22;7062;49.792;9.946;2024-02-14T14:54:13;11.60;99.90
13976;DHT22;7062;49.792;9.946;2024-02-14T14:56:39;11.60;99.90
13976;DHT22;7062;49.792;9.946;2024-02-14T14:59:04;11.50;99.90
13976;DHT22;7062;49.792;9.946;2024-02-14T15:01:31;11.40;99.90
13976;DHT22;7062;49.792;9.946;2024-02-14T15:03:59;11.50;99.90
13976;DHT22;7062;49.792;9.946;2024-02-14T15:06:25;11.50;99.90
13976;DHT22;7062;49.792;9.946;2024-02-14T15:08:51;11.60;99.90
13976;DHT22;7062;49.792;9.946;2024-02-14T15:11:16;11.80;99.90
13976;DHT22;7062;49.792;9.946;2024-02-14T15:13:44;11.80;99.90
13976;DHT22;7062;49.792;9.946;2024-02-14T15:16:10;11.70;99.90
13976;DHT22;7062;49.792;9.946;2024-02-14T15:18:36;11.60;99.90
13976;DHT22;7062;49.792;9.946;2024-02-14T15:21:02;11.50;99.90
13976;DHT22;7062;49.792;9.946;2024-02-14T15:23:28;11.50;99.90
13976;DHT22;7062;49.792;9.946;2024-02-14T15:25:54;11.40;99.90
13976;DHT22;7062;49.792;9.946;2024-02-14T15:28:28;11.40;99.90
13976;DHT22;7062;49.792;9.946;2024-02-14T15:30:54;11.40;99.90
13976;DHT22;7062;49.792;9.946;2024-02-14T15:33:38;11.40;99.90
13976;DHT22;7062;49.792;9.946;2024-02-14T15:36:05;11.50;99.90
13976;DHT22;7062;49.792;9.946;2024-02-14T15:38:30;11.50;99.90
13976;DHT22;7062;49.792;9.946;2024-02-14T15:40:57;11.40;99.90
13976;DHT22;7062;49.792;9.946;2024-02-14T15:43:23;11.40;99.90
13976;DHT22;7062;49.792;9.946;2024-02-14T15:45:50;11.50;99.90
13976;DHT22;7062;49.792;9.946;2024-02-14T15:48:16;11.50;99.90
13976;DHT22;7062;49.792;9.946;2024-02-14T15:50:42;11.60;99.90